sensor_id;sensor_type;location;lat;lon;timestamp;temperature;humidity
21648;DHT22;10985;54.182;7.890;2024-02-23T00:00:30;6.50;99.90
21648;DHT22;10985;54.182;7.890;2024-02-23T00:02:56;6.40;99.90
21648;DHT22;10985;54.182;7.890;2024-02-23T00:05:23;6.40;99.90
21648;DHT22;10985;54.182;7.890;2024-02-23T00:07:49;6.30;99.90
21648;DHT22;10985;54.182;7.890;2024-02-23T00:10:14;6.30;99.90
21648;DHT22;10985;54.182;7.890;2024-02-23T00:12:41;6.20;99.90
21648;DHT22;10985;54.182;7.890;2024-02-23T00:15:07;6.20;99.90
21648;DHT22;10985;54.182;7.890;2024-02-23T00:17:32;6.10;99.90
21648;DHT22;10985;54.182;7.890;2024-02-23T00:19:58;6.10;99.90
21648;DHT22;10985;54.182;7.890;2024-02-23T00:22:24;6.10;99.90
21648;DHT22;10985;54.182;7.890;2024-02-23T00:24:51;6.10;99.90
21648;DHT22;10985;54.182;7.890;2024-02-23T00:27:16;6.10;99.90
21648;DHT22;10985;54.182;7.890;2024-02-23T00:29:42;6.10;99.90
21648;DHT22;10985;54.182;7.890;2024-02-23T00:32:07;6.10;99.90
21648;DHT22;10985;54.182;7.890;2024-02-23T00:34:33;6.10;99.90
21648;DHT22;10985;54.182;7.890;2024-02-23T00:36:59;6.10;99.90
21648;DHT22;10985;54.182;7.890;2024-02-23T00:39:24;6.10;99.90
21648;DHT22;10985;54.182;7.890;2024-02-23T00:41:50;6.10;99.90
21648;DHT22;10985;54.182;7.890;2024-02-23T00:44:16;6.10;99.90
21648;DHT22;10985;54.182;7.890;2024-02-23T00:46:41;6.10;99.90
21648;DHT22;10985;54.182;7.890;2024-02-23T00:49:07;6.10;99.90
21648;DHT22;10985;54.182;7.890;2024-02-23T00:51:32;6.00;99.90
21648;DHT22;10985;54.182;7.890;2024-02-23T00:53:58;6.00;99.90
21648;DHT22;10985;54.182;7.890;2024-02-23T00:56:24;5.90;99.90
21648;DHT22;10985;54.182;7.890;2024-02-23T00:58:50;6.00;99.90
21648;DHT22;10985;54.182;7.890;2024-02-23T01:01:16;6.00;99.90
21648;DHT22;10985;54.182;7.890;2024-02-23T01:03:41;6.00;99.90
21648;DHT22;10985;54.182;7.890;2024-02-23T01:06:07;6.00;99.90
21648;DHT22;10985;54.182;7.890;2024-02-23T01:08:32;6.00;99.90
21648;DHT22;10985;54.182;7.890;2024-02-23T01:10:58;6.00;99.90
21648;DHT22;10985;54.182;7.890;2024-02-23T01:13:23;6.00;99.90
21648;DHT22;10985;54.182;7.890;2024-02-23T01:15:49;6.00;99.90
21648;DHT22;10985;54.182;7.890;2024-02-23T01:18:15;6.00;99.90
21648;DHT22;10985;54.182;7.890;2024-02-23T01:20:40;6.00;99.90
21648;DHT22;10985;54.182;7.890;2024-02-23T01:23:06;6.00;99.90
21648;DHT22;10985;54.182;7.890;2024-02-23T01:25:31;6.00;99.90
21648;DHT22;10985;54.182;7.890;2024-02-23T01:27:57;6.00;99.90
21648;DHT22;10985;54.182;7.890;2024-02-23T01:30:22;5.90;99.90
21648;DHT22;10985;54.182;7.890;2024-02-23T01:32:48;5.90;99.90
21648;DHT22;10985;54.182;7.890;2024-02-23T01:35:15;5.90;99.90
21648;DHT22;10985;54.182;7.890;2024-02-23T01:37:41;6.00;99.90
21648;DHT22;10985;54.182;7.890;2024-02-23T01:40:07;5.90;99.90
21648;DHT22;10985;54.182;7.890;2024-02-23T01:42:32;6.00;99.90
21648;DHT22;10985;54.182;7.890;2024-02-23T01:44:58;6.00;99.90
21648;DHT22;10985;54.182;7.890;2024-02-23T01:47:25;6.00;99.90
21648;DHT22;10985;54.182;7.890;2024-02-23T01:49:51;6.00;99.90
21648;DHT22;10985;54.182;7.890;2024-02-23T01:52:17;6.00;99.90
21648;DHT22;10985;54.182;7.890;2024-02-23T01:54:44;6.10;99.90
21648;DHT22;10985;54.182;7.890;2024-02-23T01:57:09;6.00;99.90
21648;DHT22;10985;54.182;7.890;2024-02-23T01:59:36;6.10;99.90
21648;DHT22;10985;54.182;7.890;2024-02-23T02:02:03;6.20;99.90
21648;DHT22;10985;54.182;7.890;2024-02-23T02:04:28;6.20;99.90
21648;DHT22;10985;54.182;7.890;2024-02-23T02:06:54;6.30;99.90
21648;DHT22;10985;54.182;7.890;2024-02-23T02:09:20;6.40;99.90
21648;DHT22;10985;54.182;7.890;2024-02-23T02:11:49;6.40;99.90
21648;DHT22;10985;54.182;7.890;2024-02-23T02:14:15;6.50;99.90
21648;DHT22;10985;54.182;7.890;2024-02-23T02:16:41;6.50;99.90
21648;DHT22;10985;54.182;7.890;2024-02-23T02:19:07;6.40;99.90
21648;DHT22;10985;54.182;7.890;2024-02-23T02:21:33;6.30;99.90
21648;DHT22;10985;54.182;7.890;2024-02-23T02:23:59;6.30;99.90
21648;DHT22;10985;54.182;7.890;2024-02-23T02:26:24;6.20;99.90
21648;DHT22;10985;54.182;7.890;2024-02-23T02:28:50;6.20;99.90
21648;DHT22;10985;54.182;7.890;2024-02-23T02:31:15;6.20;99.90
21648;DHT22;10985;54.182;7.890;2024-02-23T02:33:41;6.10;99.90
21648;DHT22;10985;54.182;7.890;2024-02-23T02:36:07;6.10;99.90
21648;DHT22;10985;54.182;7.890;2024-02-23T02:38:32;6.10;99.90
21648;DHT22;10985;54.182;7.890;2024-02-23T02:41:01;6.00;99.90
21648;DHT22;10985;54.182;7.890;2024-02-23T02:43:27;6.00;99.90
21648;DHT22;10985;54.182;7.890;2024-02-23T02:45:52;6.00;99.90
21648;DHT22;10985;54.182;7.890;2024-02-23T02:48:18;6.00;99.90
21648;DHT22;10985;54.182;7.890;2024-02-23T02:50:44;6.00;99.90
21648;DHT22;10985;54.182;7.890;2024-02-23T02:53:09;6.00;99.90
21648;DHT22;10985;54.182;7.890;2024-02-23T02:55:36;5.90;99.90
21648;DHT22;10985;54.182;7.890;2024-02-23T02:58:01;5.90;99.90
21648;DHT22;10985;54.182;7.890;2024-02-23T03:00:27;5.90;99.90
21648;DHT22;10985;54.182;7.890;2024-02-23T03:02:53;5.90;99.90
21648;DHT22;10985;54.182;7.890;2024-02-23T03:05:19;5.90;99.90
21648;DHT22;10985;54.182;7.890;2024-02-23T03:07:44;6.00;99.90
21648;DHT22;10985;54.182;7.890;2024-02-23T03:10:10;6.00;99.90
21648;DHT22;10985;54.182;7.890;2024-02-23T03:12:36;6.10;99.90
21648;DHT22;10985;54.182;7.890;2024-02-23T03:15:01;6.10;99.90
21648;DHT22;10985;54.182;7.890;2024-02-23T03:17:30;6.10;99.90
21648;DHT22;10985;54.182;7.890;2024-02-23T03:19:56;6.10;99.90
21648;DHT22;10985;54.182;7.890;2024-02-23T03:22:21;6.20;99.90
21648;DHT22;10985;54.182;7.890;2024-02-23T03:24:47;6.20;99.90
21648;DHT22;10985;54.182;7.890;2024-02-23T03:27:12;6.30;99.90
21648;DHT22;10985;54.182;7.890;2024-02-23T03:29:39;6.30;99.90
21648;DHT22;10985;54.182;7.890;2024-02-23T03:32:05;6.30;99.90
21648;DHT22;10985;54.182;7.890;2024-02-23T03:34:31;6.30;99.90
21648;DHT22;10985;54.182;7.890;2024-02-23T03:36:56;6.30;99.90
21648;DHT22;10985;54.182;7.890;2024-02-23T03:39:23;6.40;99.90
21648;DHT22;10985;54.182;7.890;2024-02-23T03:41:49;6.40;99.90
21648;DHT22;10985;54.182;7.890;2024-02-23T03:44:14;6.40;99.90
21648;DHT22;10985;54.182;7.890;2024-02-23T03:46:40;6.40;99.90
21648;DHT22;10985;54.182;7.890;2024-02-23T03:49:05;6.40;99.90
21648;DHT22;10985;54.182;7.890;2024-02-23T03:51:31;6.40;99.90
21648;DHT22;10985;54.182;7.890;2024-02-23T03:53:58;6.40;99.90
21648;DHT22;10985;54.182;7.890;2024-02-23T03:56:23;6.40;99.90
21648;DHT22;10985;54.182;7.890;2024-02-23T03:58:49;6.40;99.90
21648;DHT22;10985;54.182;7.890;2024-02-23T04:01:14;6.40;99.90
21648;DHT22;10985;54.182;7.890;2024-02-23T04:03:40;6.50;99.90
21648;DHT22;10985;54.182;7.890;2024-02-23T04:06:05;6.50;99.90
21648;DHT22;10985;54.182;7.890;2024-02-23T04:08:32;6.50;99.90
21648;DHT22;10985;54.182;7.890;2024-02-23T04:10:57;6.40;99.90
21648;DHT22;10985;54.182;7.890;2024-02-23T04:13:23;6.50;99.90
21648;DHT22;10985;54.182;7.890;2024-02-23T04:15:49;6.50;99.90
21648;DHT22;10985;54.182;7.890;2024-02-23T04:18:15;6.50;99.90
21648;DHT22;10985;54.182;7.890;2024-02-23T04:20:40;6.50;99.90
21648;DHT22;10985;54.182;7.890;2024-02-23T04:23:06;6.50;99.90
21648;DHT22;10985;54.182;7.890;2024-02-23T04:25:32;6.50;99.90
21648;DHT22;10985;54.182;7.890;2024-02-23T04:27:57;6.50;99.90
21648;DHT22;10985;54.182;7.890;2024-02-23T04:30:23;6.60;99.90
21648;DHT22;10985;54.182;7.890;2024-02-23T04:32:48;6.40;99.90
21648;DHT22;10985;54.182;7.890;2024-02-23T04:35:14;6.40;99.90
21648;DHT22;10985;54.182;7.890;2024-02-23T04:37:43;6.30;99.90
21648;DHT22;10985;54.182;7.890;2024-02-23T04:40:10;6.30;99.90
21648;DHT22;10985;54.182;7.890;2024-02-23T04:42:36;6.30;99.90
21648;DHT22;10985;54.182;7.890;2024-02-23T04:45:01;6.30;99.90
21648;DHT22;10985;54.182;7.890;2024-02-23T04:47:27;6.30;99.90
21648;DHT22;10985;54.182;7.890;2024-02-23T04:49:52;6.30;99.90
21648;DHT22;10985;54.182;7.890;2024-02-23T04:52:18;6.30;99.90
21648;DHT22;10985;54.182;7.890;2024-02-23T04:54:44;6.30;99.90
21648;DHT22;10985;54.182;7.890;2024-02-23T04:57:09;6.40;99.90
21648;DHT22;10985;54.182;7.890;2024-02-23T04:59:35;6.40;99.90
21648;DHT22;10985;54.182;7.890;2024-02-23T05:02:00;6.40;99.90
21648;DHT22;10985;54.182;7.890;2024-02-23T05:04:26;6.30;99.90
21648;DHT22;10985;54.182;7.890;2024-02-23T05:06:52;6.30;99.90
21648;DHT22;10985;54.182;7.890;2024-02-23T05:09:17;6.30;99.90
21648;DHT22;10985;54.182;7.890;2024-02-23T05:11:43;6.30;99.90
21648;DHT22;10985;54.182;7.890;2024-02-23T05:14:08;6.20;99.90
21648;DHT22;10985;54.182;7.890;2024-02-23T05:16:34;6.20;99.90
21648;DHT22;10985;54.182;7.890;2024-02-23T05:18:59;6.20;99.90
21648;DHT22;10985;54.182;7.890;2024-02-23T05:21:25;6.20;99.90
21648;DHT22;10985;54.182;7.890;2024-02-23T05:23:51;6.10;99.90
21648;DHT22;10985;54.182;7.890;2024-02-23T05:26:17;6.10;99.90
21648;DHT22;10985;54.182;7.890;2024-02-23T05:28:43;6.10;99.90
21648;DHT22;10985;54.182;7.890;2024-02-23T05:31:09;6.10;99.90
21648;DHT22;10985;54.182;7.890;2024-02-23T05:33:35;6.00;99.90
21648;DHT22;10985;54.182;7.890;2024-02-23T05:36:00;6.00;99.90
21648;DHT22;10985;54.182;7.890;2024-02-23T05:38:26;6.10;99.90
21648;DHT22;10985;54.182;7.890;2024-02-23T05:40:51;6.10;99.90
21648;DHT22;10985;54.182;7.890;2024-02-23T05:43:17;6.10;99.90
21648;DHT22;10985;54.182;7.890;2024-02-23T05:45:42;6.20;99.90
21648;DHT22;10985;54.182;7.890;2024-02-23T05:48:09;6.20;99.90
21648;DHT22;10985;54.182;7.890;2024-02-23T05:50:34;6.30;99.90
21648;DHT22;10985;54.182;7.890;2024-02-23T05:53:00;6.30;99.90
21648;DHT22;10985;54.182;7.890;2024-02-23T05:55:25;6.20;99.90
21648;DHT22;10985;54.182;7.890;2024-02-23T05:57:51;6.20;99.90
21648;DHT22;10985;54.182;7.890;2024-02-23T06:00:17;6.10;99.90
21648;DHT22;10985;54.182;7.890;2024-02-23T06:02:50;6.10;99.90
21648;DHT22;10985;54.182;7.890;2024-02-23T06:05:15;6.10;99.90
21648;DHT22;10985;54.182;7.890;2024-02-23T06:07:41;6.10;99.90
21648;DHT22;10985;54.182;7.890;2024-02-23T06:10:07;6.10;99.90
21648;DHT22;10985;54.182;7.890;2024-02-23T06:12:32;6.20;99.90
21648;DHT22;10985;54.182;7.890;2024-02-23T06:14:58;6.20;99.90
21648;DHT22;10985;54.182;7.890;2024-02-23T06:17:24;6.30;99.90
21648;DHT22;10985;54.182;7.890;2024-02-23T06:19:50;6.20;99.90
21648;DHT22;10985;54.182;7.890;2024-02-23T06:22:15;6.20;99.90
21648;DHT22;10985;54.182;7.890;2024-02-23T06:24:49;6.20;99.90
21648;DHT22;10985;54.182;7.890;2024-02-23T06:27:14;6.20;99.90
21648;DHT22;10985;54.182;7.890;2024-02-23T06:29:40;6.20;99.90
21648;DHT22;10985;54.182;7.890;2024-02-23T06:32:05;6.20;99.90
21648;DHT22;10985;54.182;7.890;2024-02-23T06:34:31;6.30;99.90
21648;DHT22;10985;54.182;7.890;2024-02-23T06:36:57;6.30;99.90
21648;DHT22;10985;54.182;7.890;2024-02-23T06:39:22;6.30;99.90
21648;DHT22;10985;54.182;7.890;2024-02-23T06:41:48;6.40;99.90
21648;DHT22;10985;54.182;7.890;2024-02-23T06:44:13;6.40;99.90
21648;DHT22;10985;54.182;7.890;2024-02-23T06:46:39;6.50;99.90
21648;DHT22;10985;54.182;7.890;2024-02-23T06:49:04;6.40;99.90
21648;DHT22;10985;54.182;7.890;2024-02-23T06:51:31;6.40;99.90
21648;DHT22;10985;54.182;7.890;2024-02-23T06:53:56;6.40;99.90
21648;DHT22;10985;54.182;7.890;2024-02-23T06:56:22;6.40;99.90
21648;DHT22;10985;54.182;7.890;2024-02-23T06:58:47;6.40;99.90
21648;DHT22;10985;54.182;7.890;2024-02-23T07:01:13;6.40;99.90
21648;DHT22;10985;54.182;7.890;2024-02-23T07:03:38;6.40;99.90
21648;DHT22;10985;54.182;7.890;2024-02-23T07:06:06;6.40;99.90
21648;DHT22;10985;54.182;7.890;2024-02-23T07:08:32;6.40;99.90
21648;DHT22;10985;54.182;7.890;2024-02-23T07:10:57;6.40;99.90
21648;DHT22;10985;54.182;7.890;2024-02-23T07:13:22;6.40;99.90
21648;DHT22;10985;54.182;7.890;2024-02-23T07:15:48;6.40;99.90
21648;DHT22;10985;54.182;7.890;2024-02-23T07:18:14;6.30;99.90
21648;DHT22;10985;54.182;7.890;2024-02-23T07:20:41;6.30;99.90
21648;DHT22;10985;54.182;7.890;2024-02-23T07:23:06;6.30;99.90
21648;DHT22;10985;54.182;7.890;2024-02-23T07:25:33;6.30;99.90
21648;DHT22;10985;54.182;7.890;2024-02-23T07:27:58;6.30;99.90
21648;DHT22;10985;54.182;7.890;2024-02-23T07:30:24;6.30;99.90
21648;DHT22;10985;54.182;7.890;2024-02-23T07:32:49;6.30;99.90
21648;DHT22;10985;54.182;7.890;2024-02-23T07:35:15;6.40;99.90
21648;DHT22;10985;54.182;7.890;2024-02-23T07:37:40;6.40;99.90
21648;DHT22;10985;54.182;7.890;2024-02-23T07:40:06;6.40;99.90
21648;DHT22;10985;54.182;7.890;2024-02-23T07:42:33;6.40;99.90
21648;DHT22;10985;54.182;7.890;2024-02-23T07:45:02;6.40;99.90
21648;DHT22;10985;54.182;7.890;2024-02-23T07:47:29;6.40;99.90
21648;DHT22;10985;54.182;7.890;2024-02-23T07:49:55;6.40;99.90
21648;DHT22;10985;54.182;7.890;2024-02-23T07:52:20;6.40;99.90
21648;DHT22;10985;54.182;7.890;2024-02-23T07:54:49;6.40;99.90
21648;DHT22;10985;54.182;7.890;2024-02-23T07:57:17;6.40;99.90
21648;DHT22;10985;54.182;7.890;2024-02-23T07:59:42;6.40;99.90
21648;DHT22;10985;54.182;7.890;2024-02-23T08:02:08;6.40;99.90
21648;DHT22;10985;54.182;7.890;2024-02-23T08:04:34;6.30;99.90
21648;DHT22;10985;54.182;7.890;2024-02-23T08:06:59;6.30;99.90
21648;DHT22;10985;54.182;7.890;2024-02-23T08:09:25;6.30;99.90
21648;DHT22;10985;54.182;7.890;2024-02-23T08:11:50;6.20;99.90
21648;DHT22;10985;54.182;7.890;2024-02-23T08:14:16;6.20;99.90
21648;DHT22;10985;54.182;7.890;2024-02-23T08:16:42;6.30;99.90
21648;DHT22;10985;54.182;7.890;2024-02-23T08:19:07;6.30;99.90
21648;DHT22;10985;54.182;7.890;2024-02-23T08:21:33;6.30;99.90
21648;DHT22;10985;54.182;7.890;2024-02-23T08:23:59;6.30;99.90
21648;DHT22;10985;54.182;7.890;2024-02-23T08:26:24;6.30;99.90
21648;DHT22;10985;54.182;7.890;2024-02-23T08:28:50;6.30;99.90
21648;DHT22;10985;54.182;7.890;2024-02-23T08:31:15;6.30;99.90
21648;DHT22;10985;54.182;7.890;2024-02-23T08:33:42;6.30;99.90
21648;DHT22;10985;54.182;7.890;2024-02-23T08:36:07;6.30;99.90
21648;DHT22;10985;54.182;7.890;2024-02-23T08:38:33;6.40;99.90
21648;DHT22;10985;54.182;7.890;2024-02-23T08:40:59;6.40;99.90
21648;DHT22;10985;54.182;7.890;2024-02-23T08:43:24;6.40;99.90
21648;DHT22;10985;54.182;7.890;2024-02-23T08:45:50;6.40;99.90
21648;DHT22;10985;54.182;7.890;2024-02-23T08:48:16;6.40;99.90
21648;DHT22;10985;54.182;7.890;2024-02-23T08:50:41;6.40;99.90
21648;DHT22;10985;54.182;7.890;2024-02-23T08:53:07;6.50;99.90
21648;DHT22;10985;54.182;7.890;2024-02-23T08:55:32;6.50;99.90
21648;DHT22;10985;54.182;7.890;2024-02-23T08:57:58;6.50;99.90
21648;DHT22;10985;54.182;7.890;2024-02-23T09:00:24;6.50;99.90
21648;DHT22;10985;54.182;7.890;2024-02-23T09:02:49;6.50;99.90
21648;DHT22;10985;54.182;7.890;2024-02-23T09:05:15;6.50;99.90
21648;DHT22;10985;54.182;7.890;2024-02-23T09:07:41;6.50;99.90
21648;DHT22;10985;54.182;7.890;2024-02-23T09:10:06;6.40;99.90
21648;DHT22;10985;54.182;7.890;2024-02-23T09:12:32;6.40;99.90
21648;DHT22;10985;54.182;7.890;2024-02-23T09:14:58;6.40;99.90
21648;DHT22;10985;54.182;7.890;2024-02-23T09:17:23;6.40;99.90
21648;DHT22;10985;54.182;7.890;2024-02-23T09:19:49;6.40;99.90
21648;DHT22;10985;54.182;7.890;2024-02-23T09:22:14;6.40;99.90
21648;DHT22;10985;54.182;7.890;2024-02-23T09:24:41;6.40;99.90
21648;DHT22;10985;54.182;7.890;2024-02-23T09:27:06;6.40;99.90
21648;DHT22;10985;54.182;7.890;2024-02-23T09:29:32;6.40;99.90
21648;DHT22;10985;54.182;7.890;2024-02-23T09:31:58;6.40;99.90
21648;DHT22;10985;54.182;7.890;2024-02-23T09:34:24;6.50;99.90
21648;DHT22;10985;54.182;7.890;2024-02-23T09:36:50;6.40;99.90
21648;DHT22;10985;54.182;7.890;2024-02-23T09:39:15;6.50;99.90
21648;DHT22;10985;54.182;7.890;2024-02-23T09:41:42;6.50;99.90
21648;DHT22;10985;54.182;7.890;2024-02-23T09:44:08;6.50;99.90
21648;DHT22;10985;54.182;7.890;2024-02-23T09:46:36;6.50;99.90
21648;DHT22;10985;54.182;7.890;2024-02-23T09:49:02;6.60;99.90
21648;DHT22;10985;54.182;7.890;2024-02-23T09:51:29;6.60;99.90
21648;DHT22;10985;54.182;7.890;2024-02-23T09:53:56;6.70;99.90
21648;DHT22;10985;54.182;7.890;2024-02-23T09:56:26;6.70;99.90
21648;DHT22;10985;54.182;7.890;2024-02-23T09:58:53;6.80;99.90
21648;DHT22;10985;54.182;7.890;2024-02-23T10:01:25;6.80;99.90
21648;DHT22;10985;54.182;7.890;2024-02-23T10:03:53;6.80;99.90
21648;DHT22;10985;54.182;7.890;2024-02-23T10:06:20;6.80;99.90
21648;DHT22;10985;54.182;7.890;2024-02-23T10:08:45;6.80;99.90
21648;DHT22;10985;54.182;7.890;2024-02-23T10:11:11;6.80;99.90
21648;DHT22;10985;54.182;7.890;2024-02-23T10:13:36;6.90;99.90
21648;DHT22;10985;54.182;7.890;2024-02-23T10:16:02;6.90;99.90
21648;DHT22;10985;54.182;7.890;2024-02-23T10:18:27;6.90;99.90
21648;DHT22;10985;54.182;7.890;2024-02-23T10:20:53;7.00;99.90
21648;DHT22;10985;54.182;7.890;2024-02-23T10:23:19;7.10;99.90
21648;DHT22;10985;54.182;7.890;2024-02-23T10:25:45;7.10;99.90
21648;DHT22;10985;54.182;7.890;2024-02-23T10:28:11;7.20;99.90
21648;DHT22;10985;54.182;7.890;2024-02-23T10:30:37;7.30;99.90
21648;DHT22;10985;54.182;7.890;2024-02-23T10:33:05;7.40;99.90
21648;DHT22;10985;54.182;7.890;2024-02-23T10:35:32;7.40;99.90
21648;DHT22;10985;54.182;7.890;2024-02-23T10:38:01;7.50;99.90
21648;DHT22;10985;54.182;7.890;2024-02-23T10:40:30;7.50;99.90
21648;DHT22;10985;54.182;7.890;2024-02-23T10:42:57;7.50;99.90
21648;DHT22;10985;54.182;7.890;2024-02-23T10:45:24;7.50;99.90
21648;DHT22;10985;54.182;7.890;2024-02-23T10:47:50;7.40;99.90
21648;DHT22;10985;54.182;7.890;2024-02-23T10:50:17;7.40;99.90
21648;DHT22;10985;54.182;7.890;2024-02-23T10:52:45;7.50;99.90
21648;DHT22;10985;54.182;7.890;2024-02-23T10:55:12;7.50;99.90
21648;DHT22;10985;54.182;7.890;2024-02-23T10:57:38;7.60;99.90
21648;DHT22;10985;54.182;7.890;2024-02-23T11:00:08;7.60;99.90
21648;DHT22;10985;54.182;7.890;2024-02-23T11:02:43;7.60;99.90
21648;DHT22;10985;54.182;7.890;2024-02-23T11:05:11;7.50;99.90
21648;DHT22;10985;54.182;7.890;2024-02-23T11:07:41;7.50;99.90
21648;DHT22;10985;54.182;7.890;2024-02-23T11:10:07;7.50;99.90
21648;DHT22;10985;54.182;7.890;2024-02-23T11:12:34;7.50;99.90
21648;DHT22;10985;54.182;7.890;2024-02-23T11:15:01;7.40;99.90
21648;DHT22;10985;54.182;7.890;2024-02-23T11:17:28;7.40;99.90
21648;DHT22;10985;54.182;7.890;2024-02-23T11:19:55;7.50;99.90
21648;DHT22;10985;54.182;7.890;2024-02-23T11:22:27;7.50;99.90
21648;DHT22;10985;54.182;7.890;2024-02-23T11:25:03;7.40;99.90
21648;DHT22;10985;54.182;7.890;2024-02-23T11:27:31;7.40;99.90
21648;DHT22;10985;54.182;7.890;2024-02-23T11:30:05;7.40;99.90
21648;DHT22;10985;54.182;7.890;2024-02-23T11:32:44;7.40;99.90
21648;DHT22;10985;54.182;7.890;2024-02-23T11:35:12;7.40;99.90
21648;DHT22;10985;54.182;7.890;2024-02-23T11:37:48;7.40;99.90
21648;DHT22;10985;54.182;7.890;2024-02-23T11:40:14;7.40;99.90
21648;DHT22;10985;54.182;7.890;2024-02-23T11:42:41;7.40;99.90
21648;DHT22;10985;54.182;7.890;2024-02-23T11:45:08;7.40;99.90
21648;DHT22;10985;54.182;7.890;2024-02-23T11:47:34;7.50;99.90
21648;DHT22;10985;54.182;7.890;2024-02-23T11:49:59;7.60;99.90
21648;DHT22;10985;54.182;7.890;2024-02-23T11:52:25;7.60;99.90
21648;DHT22;10985;54.182;7.890;2024-02-23T11:54:51;7.70;99.90
21648;DHT22;10985;54.182;7.890;2024-02-23T11:57:16;7.70;99.90
21648;DHT22;10985;54.182;7.890;2024-02-23T11:59:42;7.70;99.90
21648;DHT22;10985;54.182;7.890;2024-02-23T12:02:07;7.70;99.90
21648;DHT22;10985;54.182;7.890;2024-02-23T12:04:33;7.70;99.90
21648;DHT22;10985;54.182;7.890;2024-02-23T12:06:59;7.70;99.90
21648;DHT22;10985;54.182;7.890;2024-02-23T12:09:25;7.70;99.90
21648;DHT22;10985;54.182;7.890;2024-02-23T12:11:51;7.60;99.90
21648;DHT22;10985;54.182;7.890;2024-02-23T12:14:17;7.60;99.90
21648;DHT22;10985;54.182;7.890;2024-02-23T12:16:43;7.60;99.90
21648;DHT22;10985;54.182;7.890;2024-02-23T12:19:09;7.60;99.90
21648;DHT22;10985;54.182;7.890;2024-02-23T12:21:34;7.60;99.90
21648;DHT22;10985;54.182;7.890;2024-02-23T12:24:04;7.60;99.90
21648;DHT22;10985;54.182;7.890;2024-02-23T12:26:30;7.60;99.90
21648;DHT22;10985;54.182;7.890;2024-02-23T12:29:00;7.50;99.90
21648;DHT22;10985;54.182;7.890;2024-02-23T12:31:26;7.50;99.90
21648;DHT22;10985;54.182;7.890;2024-02-23T12:33:52;7.40;99.90
21648;DHT22;10985;54.182;7.890;2024-02-23T12:36:17;7.30;99.90
21648;DHT22;10985;54.182;7.890;2024-02-23T12:38:43;7.30;99.90
21648;DHT22;10985;54.182;7.890;2024-02-23T12:41:09;7.40;99.90
21648;DHT22;10985;54.182;7.890;2024-02-23T12:43:34;7.40;99.90
21648;DHT22;10985;54.182;7.890;2024-02-23T12:46:00;7.50;99.90
21648;DHT22;10985;54.182;7.890;2024-02-23T12:48:28;7.40;99.90
21648;DHT22;10985;54.182;7.890;2024-02-23T12:50:53;7.40;99.90
21648;DHT22;10985;54.182;7.890;2024-02-23T12:53:39;7.40;99.90
21648;DHT22;10985;54.182;7.890;2024-02-23T12:56:07;7.40;99.90
21648;DHT22;10985;54.182;7.890;2024-02-23T12:58:34;7.40;99.90
21648;DHT22;10985;54.182;7.890;2024-02-23T13:01:00;7.40;99.90
21648;DHT22;10985;54.182;7.890;2024-02-23T13:03:26;7.30;99.90
21648;DHT22;10985;54.182;7.890;2024-02-23T13:05:53;7.30;99.90
21648;DHT22;10985;54.182;7.890;2024-02-23T13:08:18;7.30;99.90
21648;DHT22;10985;54.182;7.890;2024-02-23T13:10:44;7.30;99.90
21648;DHT22;10985;54.182;7.890;2024-02-23T13:13:10;7.20;99.90
21648;DHT22;10985;54.182;7.890;2024-02-23T13:15:35;7.10;99.90
21648;DHT22;10985;54.182;7.890;2024-02-23T13:18:04;7.00;99.90
21648;DHT22;10985;54.182;7.890;2024-02-23T13:20:30;7.00;99.90
21648;DHT22;10985;54.182;7.890;2024-02-23T13:22:55;7.00;99.90
21648;DHT22;10985;54.182;7.890;2024-02-23T13:25:21;7.00;99.90
21648;DHT22;10985;54.182;7.890;2024-02-23T13:27:47;7.00;99.90
21648;DHT22;10985;54.182;7.890;2024-02-23T13:30:12;6.90;99.90
21648;DHT22;10985;54.182;7.890;2024-02-23T13:32:38;6.90;99.90
21648;DHT22;10985;54.182;7.890;2024-02-23T13:35:04;6.90;99.90
21648;DHT22;10985;54.182;7.890;2024-02-23T13:37:32;6.90;99.90
21648;DHT22;10985;54.182;7.890;2024-02-23T13:39:57;6.90;99.90
21648;DHT22;10985;54.182;7.890;2024-02-23T13:42:23;7.00;99.90
21648;DHT22;10985;54.182;7.890;2024-02-23T13:44:48;7.00;99.90
21648;DHT22;10985;54.182;7.890;2024-02-23T13:47:14;7.10;99.90
21648;DHT22;10985;54.182;7.890;2024-02-23T13:49:40;7.10;99.90
21648;DHT22;10985;54.182;7.890;2024-02-23T13:52:05;7.10;99.90
21648;DHT22;10985;54.182;7.890;2024-02-23T13:54:31;7.10;99.90
21648;DHT22;10985;54.182;7.890;2024-02-23T13:56:56;7.20;99.90
21648;DHT22;10985;54.182;7.890;2024-02-23T13:59:22;7.20;99.90
21648;DHT22;10985;54.182;7.890;2024-02-23T14:01:47;7.20;99.90
21648;DHT22;10985;54.182;7.890;2024-02-23T14:04:13;7.20;99.90
21648;DHT22;10985;54.182;7.890;2024-02-23T14:06:38;7.20;99.90
21648;DHT22;10985;54.182;7.890;2024-02-23T14:09:04;7.20;99.90
21648;DHT22;10985;54.182;7.890;2024-02-23T14:11:30;7.20;99.90
21648;DHT22;10985;54.182;7.890;2024-02-23T14:13:56;7.20;99.90
21648;DHT22;10985;54.182;7.890;2024-02-23T14:16:22;7.30;99.90
21648;DHT22;10985;54.182;7.890;2024-02-23T14:18:49;7.20;99.90
21648;DHT22;10985;54.182;7.890;2024-02-23T14:21:14;7.30;99.90
21648;DHT22;10985;54.182;7.890;2024-02-23T14:23:42;7.20;99.90
21648;DHT22;10985;54.182;7.890;2024-02-23T14:26:07;7.20;99.90
21648;DHT22;10985;54.182;7.890;2024-02-23T14:28:33;7.20;99.90
21648;DHT22;10985;54.182;7.890;2024-02-23T14:30:58;7.20;99.90
21648;DHT22;10985;54.182;7.890;2024-02-23T14:33:24;7.20;99.90
21648;DHT22;10985;54.182;7.890;2024-02-23T14:35:49;7.10;99.90
21648;DHT22;10985;54.182;7.890;2024-02-23T14:38:15;7.20;99.90
21648;DHT22;10985;54.182;7.890;2024-02-23T14:40:42;7.20;99.90
21648;DHT22;10985;54.182;7.890;2024-02-23T14:43:07;7.20;99.90
21648;DHT22;10985;54.182;7.890;2024-02-23T14:45:33;7.20;99.90
21648;DHT22;10985;54.182;7.890;2024-02-23T14:47:58;7.20;99.90
21648;DHT22;10985;54.182;7.890;2024-02-23T14:50:24;7.20;99.90
21648;DHT22;10985;54.182;7.890;2024-02-23T14:52:50;7.20;99.90
21648;DHT22;10985;54.182;7.890;2024-02-23T14:55:15;7.20;99.90
21648;DHT22;10985;54.182;7.890;2024-02-23T14:57:41;7.20;99.90
21648;DHT22;10985;54.182;7.890;2024-02-23T15:00:07;7.20;99.90
21648;DHT22;10985;54.182;7.890;2024-02-23T15:02:33;7.20;99.90
21648;DHT22;10985;54.182;7.890;2024-02-23T15:04:58;7.20;99.90
21648;DHT22;10985;54.182;7.890;2024-02-23T15:07:24;7.20;99.90
21648;DHT22;10985;54.182;7.890;2024-02-23T15:09:49;7.20;99.90
21648;DHT22;10985;54.182;7.890;2024-02-23T15:12:15;7.20;99.90
21648;DHT22;10985;54.182;7.890;2024-02-23T15:14:40;7.10;99.90
21648;DHT22;10985;54.182;7.890;2024-02-23T15:17:06;7.10;99.90
21648;DHT22;10985;54.182;7.890;2024-02-23T15:19:31;7.10;99.90
21648;DHT22;10985;54.182;7.890;2024-02-23T15:21:57;7.20;99.90
21648;DHT22;10985;54.182;7.890;2024-02-23T15:24:23;7.10;99.90
21648;DHT22;10985;54.182;7.890;2024-02-23T15:26:52;7.20;99.90
21648;DHT22;10985;54.182;7.890;2024-02-23T15:29:18;7.20;99.90
21648;DHT22;10985;54.182;7.890;2024-02-23T15:31:43;7.20;99.90
21648;DHT22;10985;54.182;7.890;2024-02-23T15:34:10;7.20;99.90
21648;DHT22;10985;54.182;7.890;2024-02-23T15:36:36;7.20;99.90